Time;durP1;ratioP1;P1;durP2;ratioP2;P2;SDS_P1;SDS_P2;PMS_P1;PMS_P2;Temp;Humidity;BMP_temperature;BMP_pressure;BME280_temperature;BME280_humidity;BME280_pressure;Samples;Min_cycle;Max_cycle;Signal;HPM_P1;HPM_P2
2022/09/30 00:04:37;;;;;;;;;;;;;;;7.24;73.58;99618.59;10235275;29;20039;-79
2022/09/30 00:09:41;;;;;;;;;;;;;;;7.23;73.18;99631.09;10223439;29;19977;-77
2022/09/30 00:14:44;;;;;;;17.73;13.23;;;;;;;7.13;73.30;99629.28;10226657;29;19922;-77
2022/09/30 00:19:47;;;;;;;;;;;;;;;7.10;73.27;99630.38;10248485;28;20127;-78
2022/09/30 00:24:51;;;;;;;15.77;12.68;;;;;;;7.05;73.83;99630.75;10223128;29;20043;-79
2022/09/30 00:29:54;;;;;;;16.85;13.48;;;;;;;7.04;73.73;99634.38;10241707;28;20752;-79
2022/09/30 00:34:57;;;;;;;18.85;14.23;;;;;;;6.90;74.26;99641.75;10239013;29;20442;-79
2022/09/30 00:40:01;;;;;;;15.00;13.52;;;;;;;6.74;74.97;99642.91;10237394;29;20123;-79
2022/09/30 00:45:07;;;;;;;18.02;15.50;;;;;;;6.67;75.18;99639.03;10227323;29;20115;-78
2022/09/30 00:50:20;;;;;;;17.77;15.48;;;;;;;6.69;75.06;99655.78;10240762;28;20124;-79
2022/09/30 00:55:35;;;;;;;15.68;14.07;;;;;;;6.59;75.24;99649.44;10229824;29;20124;-79
2022/09/30 01:00:38;;;;;;;15.48;13.88;;;;;;;6.54;75.24;99648.94;10241364;28;20585;-80
2022/09/30 01:05:42;;;;;;;16.17;14.48;;;;;;;6.59;75.01;99652.09;10244733;28;20560;-77
2022/09/30 01:10:46;;;;;;;18.73;14.80;;;;;;;6.57;74.99;99652.19;10223544;29;20047;-79
2022/09/30 01:16:23;;;;;;;13.80;12.30;;;;;;;6.58;74.64;99653.03;10231709;29;20686;-79
2022/09/30 01:21:54;;;;;;;14.75;12.32;;;;;;;6.54;74.80;99657.78;10248426;28;20055;-78
2022/09/30 01:27:10;;;;;;;14.30;12.02;;;;;;;6.51;74.47;99658.00;10243904;29;20126;-79
2022/09/30 01:32:24;;;;;;;14.02;12.18;;;;;;;6.44;74.31;99651.44;10244568;28;20043;-79
2022/09/30 01:37:39;;;;;;;17.58;13.32;;;;;;;6.37;74.38;99661.72;10220771;29;20075;-79
2022/09/30 01:42:50;;;;;;;19.33;15.43;;;;;;;6.36;74.57;99661.81;10241643;28;20114;-80
2022/09/30 01:48:00;;;;;;;18.25;13.90;;;;;;;6.29;74.90;99666.78;10238924;29;20070;-78
2022/09/30 01:53:10;;;;;;;17.90;15.02;;;;;;;6.21;74.72;99657.66;10248098;28;20059;-78
2022/09/30 01:58:19;;;;;;;17.13;14.00;;;;;;;6.19;74.95;99657.75;10245373;29;20130;-79
2022/09/30 02:03:31;;;;;;;24.60;15.60;;;;;;;6.15;75.27;99661.63;10248140;29;20079;-80
2022/09/30 02:08:41;;;;;;;16.53;13.67;;;;;;;6.12;75.30;99673.38;10230150;29;20120;-78
2022/09/30 02:13:49;;;;;;;15.10;13.50;;;;;;;6.12;75.32;99673.38;10228472;29;20126;-79
2022/09/30 02:18:57;;;;;;;15.13;12.18;;;;;;;6.16;75.24;99682.81;10250593;28;20074;-79
2022/09/30 02:24:04;;;;;;;16.90;13.00;;;;;;;6.13;74.96;99679.53;10235600;29;20043;-78
2022/09/30 02:29:13;;;;;;;14.98;13.25;;;;;;;6.07;75.06;99690.66;10251608;29;20135;-78
2022/09/30 02:34:21;;;;;;;17.05;13.85;;;;;;;6.01;75.10;99688.47;10262038;28;20047;-79
2022/09/30 02:39:34;;;;;;;17.55;14.50;;;;;;;5.92;75.41;99693.50;10266803;28;20159;-78
2022/09/30 02:44:37;;;;;;;17.20;13.70;;;;;;;5.92;75.32;99695.28;10253930;29;20081;-79
2022/09/30 02:49:48;;;;;;;17.42;15.00;;;;;;;5.90;75.51;99692.75;10240441;29;20044;-79
2022/09/30 02:55:08;;;;;;;18.23;13.73;;;;;;;5.93;75.36;99689.84;10256340;28;20090;-79
2022/09/30 03:00:12;;;;;;;15.52;12.82;;;;;;;5.88;74.92;99697.34;10231418;29;20135;-78
2022/09/30 03:05:17;;;;;;;14.65;12.77;;;;;;;5.91;74.77;99701.59;10243403;29;20486;-80
2022/09/30 03:10:19;;;;;;;13.98;11.38;;;;;;;5.87;74.54;99702.75;10262294;28;20480;-80
2022/09/30 03:15:45;;;;;;;16.52;12.30;;;;;;;5.84;74.35;99721.63;10249175;28;20124;-78
2022/09/30 03:21:05;;;;;;;16.27;13.35;;;;;;;5.73;74.23;99717.97;10235544;28;20473;-78
2022/09/30 03:26:18;;;;;;;15.98;14.02;;;;;;;5.61;74.88;99716.16;10247455;29;20139;-79
2022/09/30 03:31:30;;;;;;;17.60;14.98;;;;;;;5.63;74.90;99726.72;10241539;29;20090;-77
2022/09/30 03:36:41;;;;;;;17.45;13.98;;;;;;;5.61;75.11;99718.81;10230253;29;20043;-77
2022/09/30 03:41:50;;;;;;;21.02;14.73;;;;;;;5.58;75.02;99728.84;10242013;29;20142;-79
2022/09/30 03:46:57;;;;;;;18.60;15.38;;;;;;;5.52;75.35;99729.28;10244399;29;20114;-78
2022/09/30 03:52:05;;;;;;;19.08;15.48;;;;;;;5.46;75.49;99726.09;10255977;28;20497;-78
2022/09/30 03:57:08;;;;;;;17.45;15.55;;;;;;;5.43;75.77;99728.97;10240142;29;20082;-80
2022/09/30 04:02:12;;;;;;;18.17;15.52;;;;;;;5.35;75.98;99739.31;10230014;28;20075;-79
2022/09/30 04:07:16;;;;;;;19.48;15.40;;;;;;;5.34;76.25;99737.59;10238759;29;20552;-80
2022/09/30 04:12:19;;;;;;;24.77;18.58;;;;;;;5.43;76.35;99746.75;10224090;29;20082;-78
2022/09/30 04:17:22;;;;;;;21.95;16.98;;;;;;;5.45;75.97;99743.00;10245186;29;20058;-77
2022/09/30 04:22:26;;;;;;;20.48;17.15;;;;;;;5.37;75.94;99750.69;10251880;28;20109;-80
2022/09/30 04:27:29;;;;;;;24.13;18.17;;;;;;;5.27;76.22;99750.50;10240262;29;20067;-80
2022/09/30 04:32:32;;;;;;;25.48;19.02;;;;;;;5.28;76.30;99749.50;10227553;29;20055;-80
2022/09/30 04:37:36;;;;;;;22.52;18.63;;;;;;;5.23;76.30;99759.63;10244514;29;20051;-79
2022/09/30 04:42:41;;;;;;;23.60;18.17;;;;;;;5.20;76.59;99766.97;10238585;28;20134;-78
2022/09/30 04:47:44;;;;;;;24.77;18.73;;;;;;;5.13;77.01;99765.69;10238830;29;20050;-79
2022/09/30 04:52:49;;;;;;;28.90;21.15;;;;;;;5.13;77.10;99781.66;10222829;29;20134;-78
2022/09/30 04:57:51;;;;;;;27.55;19.70;;;;;;;5.15;77.04;99793.06;10226373;29;20150;-79
2022/09/30 05:02:54;;;;;;;25.20;17.92;;;;;;;5.12;77.09;99796.78;10239983;29;20083;-78
2022/09/30 05:08:01;;;;;;;23.92;17.80;;;;;;;5.10;77.06;99804.03;10223342;29;20128;-78
2022/09/30 05:13:04;;;;;;;25.35;18.90;;;;;;;5.09;76.84;99796.16;10229578;29;20083;-79
2022/09/30 05:18:07;;;;;;;27.38;20.40;;;;;;;5.03;76.88;99806.25;10233587;29;20062;-80
2022/09/30 05:23:11;;;;;;;28.30;20.13;;;;;;;5.04;77.08;99817.75;10241848;29;20082;-77
2022/09/30 05:28:14;;;;;;;23.30;18.50;;;;;;;5.13;76.84;99829.56;10249472;29;20102;-78
2022/09/30 05:33:17;;;;;;;24.05;18.05;;;;;;;5.09;76.38;99836.94;10249613;28;20054;-77
2022/09/30 05:38:21;;;;;;;22.95;16.42;;;;;;;5.15;76.12;99848.97;10272791;29;20032;-78
2022/09/30 05:43:24;;;;;;;19.67;16.02;;;;;;;5.22;76.08;99845.81;10249827;29;20099;-76
2022/09/30 05:48:27;;;;;;;20.50;16.70;;;;;;;5.20;76.15;99847.72;10236097;29;20426;-79
2022/09/30 05:53:32;;;;;;;24.55;18.02;;;;;;;5.24;75.99;99854.56;10239680;29;20051;-78
2022/09/30 05:58:36;;;;;;;24.52;18.08;;;;;;;5.20;76.15;99854.84;10252396;29;20106;-79
2022/09/30 06:03:39;;;;;;;26.55;19.67;;;;;;;5.21;76.45;99860.09;10247344;29;20126;-79
2022/09/30 06:08:44;;;;;;;31.85;20.58;;;;;;;5.39;76.56;99865.13;10232992;29;20354;-79
2022/09/30 06:13:48;;;;;;;23.27;18.15;;;;;;;5.54;76.22;99852.56;10223256;29;20059;-79
2022/09/30 06:18:51;;;;;;;42.35;27.60;;;;;;;6.07;76.38;99861.31;10251828;29;20070;-79
2022/09/30 06:23:55;;;;;;;14.98;11.82;;;;;;;6.44;74.36;99869.34;10258410;29;20171;-78
2022/09/30 06:28:58;;;;;;;15.10;13.40;;;;;;;6.49;73.19;99884.06;10235788;29;20046;-80
2022/09/30 06:34:01;;;;;;;19.67;14.65;;;;;;;6.40;72.90;99882.91;10245472;28;20047;-80
2022/09/30 06:39:05;;;;;;;18.58;14.20;;;;;;;6.72;72.55;99879.75;10251404;29;20099;-80
2022/09/30 06:44:15;;;;;;;22.20;16.30;;;;;;;7.02;71.65;99883.81;10243212;29;20444;-80
2022/09/30 06:49:18;;;;;;;19.75;16.17;;;;;;;7.39;71.16;99883.75;10255124;29;20039;-78
2022/09/30 06:54:22;;;;;;;21.27;17.00;;;;;;;7.71;70.25;99874.13;10250975;28;20081;-81
2022/09/30 06:59:25;;;;;;;21.90;17.15;;;;;;;7.98;69.43;99867.59;10251043;29;20047;-79
2022/09/30 07:04:28;;;;;;;;;;;;;;;8.08;68.83;99873.91;10249976;28;20114;-78
2022/09/30 07:09:33;;;;;;;19.88;14.45;;;;;;;8.20;68.35;99882.81;10251756;29;20443;-79
2022/09/30 07:14:36;;;;;;;19.77;14.88;;;;;;;8.15;68.24;99880.47;10244610;29;20051;-80
2022/09/30 07:19:39;;;;;;;19.90;14.50;;;;;;;8.40;68.46;99891.91;10265076;29;20063;-78
2022/09/30 07:24:43;;;;;;;24.85;16.38;;;;;;;9.08;67.86;99889.13;10252435;29;20122;-80
2022/09/30 07:29:46;;;;;;;18.48;13.77;;;;;;;9.62;66.06;99905.09;10257682;28;20050;-79
2022/09/30 07:35:09;;;;;;;;;;;;;;;9.75;64.97;99893.34;10258490;29;20445;-77
2022/09/30 07:40:14;;;;;;;19.27;13.43;;;;;;;10.09;64.28;99899.38;10254238;29;19984;-80
2022/09/30 07:45:17;;;;;;;16.45;13.95;;;;;;;10.27;63.13;99905.81;10258231;29;20043;-78
2022/09/30 07:50:20;;;;;;;19.77;12.80;;;;;;;10.35;63.04;99895.25;10256109;29;20043;-78
2022/09/30 07:55:24;;;;;;;18.08;13.40;;;;;;;11.09;63.27;99910.19;10235594;29;20122;-77
2022/09/30 08:00:27;;;;;;;11.98;10.52;;;;;;;11.11;60.79;99910.91;10255224;28;20225;-78
2022/09/30 08:05:44;;;;;;;15.48;12.18;;;;;;;11.18;60.70;99908.53;10255137;28;20098;-78
2022/09/30 08:10:48;;;;;;;15.70;11.05;;;;;;;11.34;59.99;99929.50;10240650;29;20046;-79
2022/09/30 08:15:51;;;;;;;13.52;10.50;;;;;;;11.82;59.86;99936.69;10235478;29;20671;-80
2022/09/30 08:20:54;;;;;;;14.27;11.35;;;;;;;12.10;59.79;99913.44;10246758;28;20039;-78
2022/09/30 08:26:03;;;;;;;11.57;10.38;;;;;;;12.62;58.69;99916.53;10244520;28;20056;-79
2022/09/30 08:31:06;;;;;;;10.93;9.77;;;;;;;12.55;57.97;99910.88;10235236;28;20073;-80
2022/09/30 08:36:12;;;;;;;10.63;9.30;;;;;;;12.60;58.79;99926.59;10244205;29;20094;-80
2022/09/30 08:41:30;;;;;;;15.80;9.23;;;;;;;12.96;58.23;99921.31;10238624;28;20429;-78
2022/09/30 08:46:44;;;;;;;12.77;8.88;;;;;;;13.20;56.96;99929.66;10234212;29;20131;-77
2022/09/30 08:51:48;;;;;;;14.15;9.40;;;;;;;13.65;56.72;99938.72;10227799;29;20051;-77
2022/09/30 08:56:53;;;;;;;12.93;9.63;;;;;;;14.00;56.13;99937.84;10249107;29;20035;-77
2022/09/30 09:02:03;;;;;;;17.23;10.77;;;;;;;14.32;53.96;99941.78;10251018;28;20126;-78
2022/09/30 09:07:15;;;;;;;13.15;8.98;;;;;;;13.99;54.41;99946.06;10247299;29;20078;-79
2022/09/30 09:12:32;;;;;;;12.23;9.07;;;;;;;13.63;54.70;99933.50;10245799;29;20052;-77
2022/09/30 09:17:48;;;;;;;9.85;8.50;;;;;;;14.22;53.46;99936.47;10224929;29;20131;-79
2022/09/30 09:23:14;;;;;;;11.40;9.05;;;;;;;14.64;52.07;99930.31;10248972;28;20055;-79
2022/09/30 09:28:25;;;;;;;9.77;8.85;;;;;;;14.34;53.33;99932.50;10236198;29;20054;-78
2022/09/30 09:33:30;;;;;;;12.20;9.50;;;;;;;14.90;52.00;99919.44;10219752;29;20086;-79
2022/09/30 09:38:45;;;;;;;10.45;9.02;;;;;;;15.52;51.02;99923.66;10236079;29;20496;-79
2022/09/30 09:43:59;;;;;;;13.77;8.70;;;;;;;14.83;50.79;99932.75;10245376;28;20047;-79
2022/09/30 09:49:29;;;;;;;16.85;9.45;;;;;;;15.05;51.51;99925.06;10268120;29;20039;-77
2022/09/30 09:54:37;;;;;;;13.80;9.73;;;;;;;15.11;50.47;99923.53;10274569;28;20062;-77
2022/09/30 09:59:55;;;;;;;11.85;9.38;;;;;;;14.83;50.16;99924.63;10257513;28;20078;-79
2022/09/30 10:05:02;;;;;;;12.13;8.55;;;;;;;15.31;50.08;99924.97;10254737;28;20071;-78
2022/09/30 10:10:08;;;;;;;11.20;8.30;;;;;;;15.44;49.48;99924.50;10217708;29;20047;-77
2022/09/30 10:15:22;;;;;;;15.05;9.05;;;;;;;15.76;48.64;99923.66;10215513;29;20115;-79
2022/09/30 10:20:29;;;;;;;15.30;8.65;;;;;;;15.69;47.69;99920.81;10241075;28;20126;-78
2022/09/30 10:25:32;;;;;;;11.02;8.40;;;;;;;16.48;47.99;99920.19;10237378;29;20146;-80
2022/09/30 10:30:45;;;;;;;13.10;9.45;;;;;;;15.99;47.75;99915.72;10219703;29;20090;-78
2022/09/30 10:36:11;;;;;;;14.07;8.20;;;;;;;16.18;47.37;99916.34;10241137;29;20051;-79
2022/09/30 10:41:22;;;;;;;11.85;10.02;;;;;;;15.96;46.79;99924.16;10235971;28;20091;-79
2022/09/30 10:46:31;;;;;;;13.70;8.83;;;;;;;16.31;46.29;99922.13;10265808;29;20102;-79
2022/09/30 10:51:35;;;;;;;12.70;8.77;;;;;;;17.65;43.62;99918.44;10248218;28;20051;-80
2022/09/30 10:56:44;;;;;;;16.02;9.23;;;;;;;17.24;44.72;99919.53;10237646;29;20044;-78
2022/09/30 11:01:54;;;;;;;9.50;7.95;;;;;;;18.34;42.44;99912.88;10231882;29;20194;-80
2022/09/30 11:07:13;;;;;;;10.70;8.23;;;;;;;18.22;41.55;99908.94;10244508;29;20051;-78
2022/09/30 11:12:22;;;;;;;11.85;8.38;;;;;;;17.84;43.31;99915.19;10233145;28;20078;-80
2022/09/30 11:17:33;;;;;;;8.60;6.65;;;;;;;17.76;42.75;99909.84;10232530;29;20054;-79
2022/09/30 11:22:43;;;;;;;7.93;7.13;;;;;;;17.55;42.54;99913.25;10247636;29;20130;-79
2022/09/30 11:27:58;;;;;;;8.43;7.57;;;;;;;18.57;42.18;99905.50;10232426;29;20048;-77
2022/09/30 11:33:18;;;;;;;11.43;6.78;;;;;;;19.44;40.39;99904.69;10246327;28;20044;-79
2022/09/30 11:38:40;;;;;;;8.32;6.80;;;;;;;18.84;41.08;99896.84;10231074;29;20039;-78
2022/09/30 11:43:52;;;;;;;10.10;7.18;;;;;;;18.77;40.40;99894.03;10233447;29;20093;-80
2022/09/30 11:49:06;;;;;;;;;;;;;;;20.12;38.68;99890.59;10239680;29;20553;-79
2022/09/30 11:54:26;;;;;;;8.77;6.47;;;;;;;19.53;39.70;99899.94;10241699;28;19962;-80
2022/09/30 11:59:34;;;;;;;10.68;8.65;;;;;;;17.96;41.14;99898.47;10256712;29;20051;-79
2022/09/30 12:04:43;;;;;;;12.15;8.35;;;;;;;18.40;42.55;99889.53;10246744;29;20126;-79
2022/09/30 12:09:49;;;;;;;10.55;9.45;;;;;;;16.99;44.41;99896.28;10254028;28;20087;-79
2022/09/30 12:14:57;;;;;;;8.23;7.28;;;;;;;16.86;44.97;99909.56;10256507;29;20066;-78
2022/09/30 12:20:07;;;;;;;11.55;7.95;;;;;;;17.39;44.49;99910.66;10245213;28;20043;-80
2022/09/30 12:25:15;;;;;;;10.13;8.13;;;;;;;17.36;43.54;99901.00;10244274;29;20186;-80
2022/09/30 12:30:21;;;;;;;10.85;7.68;;;;;;;16.44;44.20;99900.75;10238538;28;20047;-81
2022/09/30 12:35:57;;;;;;;13.52;8.02;;;;;;;15.99;46.66;99896.75;10240383;29;20087;-80
2022/09/30 12:41:18;;;;;;;7.55;6.53;;;;;;;19.31;41.94;99884.59;10201963;29;20127;-79
2022/09/30 12:46:39;;;;;;;7.03;5.68;;;;;;;21.41;35.64;99877.16;10245762;29;20075;-80
2022/09/30 12:51:45;;;;;;;6.47;4.95;;;;;;;23.36;33.58;99869.19;10250122;28;20090;-80
2022/09/30 12:56:54;;;;;;;5.90;5.30;;;;;;;21.68;34.00;99883.50;10256431;29;20087;-77
2022/09/30 13:01:59;;;;;;;6.35;5.47;;;;;;;21.66;35.50;99861.00;10242527;28;20448;-80
2022/09/30 13:07:17;;;;;;;8.73;5.13;;;;;;;22.95;33.81;99854.00;10257721;29;20055;-79
2022/09/30 13:12:27;;;;;;;7.03;4.78;;;;;;;21.52;34.12;99850.28;10261462;29;20047;-79
2022/09/30 13:17:31;;;;;;;6.88;4.50;;;;;;;22.31;33.73;99847.50;10230826;29;20066;-79
2022/09/30 13:22:56;;;;;;;5.88;4.75;;;;;;;21.52;34.69;99847.53;10245283;28;20133;-77
2022/09/30 13:28:28;;;;;;;6.03;4.07;;;;;;;21.97;34.02;99839.56;10246465;29;20043;-77
2022/09/30 13:33:43;;;;;;;6.63;4.28;;;;;;;22.97;32.92;99827.25;10254193;28;20043;-78
2022/09/30 13:39:07;;;;;;;6.93;4.00;;;;;;;21.51;34.32;99835.78;10241197;29;20039;-77
2022/09/30 13:44:16;;;;;;;5.25;3.60;;;;;;;18.75;38.09;99847.13;10229977;29;20122;-78
2022/09/30 13:49:23;;;;;;;4.50;4.07;;;;;;;16.40;42.63;99838.91;10211534;29;20052;-77
2022/09/30 13:54:32;;;;;;;3.85;3.28;;;;;;;17.73;40.03;99834.16;10215887;29;20122;-77
2022/09/30 13:59:50;;;;;;;2.97;2.70;;;;;;;18.32;38.96;99825.22;10228123;28;20039;-77
2022/09/30 14:05:18;;;;;;;4.68;2.90;;;;;;;20.81;35.44;99810.63;10212850;29;20532;-77
2022/09/30 14:10:39;;;;;;;5.15;3.38;;;;;;;19.80;35.36;99804.81;10220602;28;20048;-79
2022/09/30 14:16:17;;;;;;;5.13;2.72;;;;;;;20.64;34.66;99803.84;10239274;29;20107;-77
2022/09/30 14:21:33;;;;;;;4.45;3.00;;;;;;;21.23;33.89;99798.56;10250105;28;20059;-77
2022/09/30 14:26:53;;;;;;;3.45;2.55;;;;;;;21.65;33.80;99799.19;10249298;28;20052;-78
2022/09/30 14:31:58;;;;;;;3.13;2.72;;;;;;;19.79;35.86;99806.72;10237711;29;20052;-77
2022/09/30 14:37:03;;;;;;;6.18;3.47;;;;;;;20.36;35.59;99791.16;10231183;29;20054;-77
2022/09/30 14:42:16;;;;;;;3.78;3.15;;;;;;;19.84;36.51;99796.06;10237137;28;20137;-77
2022/09/30 14:47:19;;;;;;;5.10;4.05;;;;;;;18.74;38.31;99794.59;10220714;29;20044;-76
2022/09/30 14:52:37;;;;;;;6.07;5.05;;;;;;;18.41;38.52;99790.63;10216653;29;20580;-75
2022/09/30 14:57:43;;;;;;;6.20;3.88;;;;;;;18.27;40.30;99795.91;10233798;29;20105;-77
2022/09/30 15:02:46;;;;;;;4.25;3.03;;;;;;;17.69;39.74;99786.69;10220501;29;20176;-77
2022/09/30 15:07:49;;;;;;;4.65;3.05;;;;;;;;;;10239178;29;20055;-76
2022/09/30 15:12:54;;;;;;;8.60;3.33;;;;;;;15.97;43.36;99790.44;10227032;29;20047;-77
2022/09/30 15:17:57;;;;;;;6.68;3.45;;;;;;;17.01;41.16;99786.53;10236398;29;20081;-77
2022/09/30 15:23:03;;;;;;;4.53;2.90;;;;;;;16.66;41.27;99785.25;10210577;29;20063;-77
2022/09/30 15:28:10;;;;;;;3.88;2.95;;;;;;;16.08;42.40;99784.66;10247978;23;20483;-77
2022/09/30 15:33:18;;;;;;;5.05;2.75;;;;;;;16.59;41.98;99768.88;10312872;28;20043;-76
2022/09/30 15:38:24;;;;;;;4.20;3.10;;;;;;;16.98;41.14;99767.91;10303111;28;20118;-76
2022/09/30 15:43:35;;;;;;;4.50;2.97;;;;;;;16.61;41.71;99765.97;10232457;29;20044;-76
2022/09/30 15:48:43;;;;;;;4.63;2.90;;;;;;;16.99;41.49;99769.59;10255052;29;20115;-76
2022/09/30 15:53:48;;;;;;;4.25;2.72;;;;;;;16.70;41.17;99774.88;10243924;29;20055;-77
2022/09/30 15:58:57;;;;;;;3.40;2.50;;;;;;;16.23;43.06;99771.19;10228241;29;20465;-77
2022/09/30 16:04:02;;;;;;;6.68;3.08;;;;;;;16.32;42.83;99775.59;10219300;29;20074;-76
2022/09/30 16:09:17;;;;;;;2.70;2.50;;;;;;;16.41;42.09;99776.41;10230271;28;20078;-80
2022/09/30 16:14:25;;;;;;;5.65;2.75;;;;;;;16.26;42.53;99780.88;10256641;29;20049;-81
2022/09/30 16:19:29;;;;;;;6.72;2.75;;;;;;;15.78;43.99;99780.00;10250592;28;20388;-79
2022/09/30 16:24:48;;;;;;;4.88;3.13;;;;;;;15.45;44.59;99791.72;10239630;29;20118;-80
2022/09/30 16:29:53;;;;;;;5.53;3.30;;;;;;;15.22;45.11;99790.66;10219605;29;20142;-81
2022/09/30 16:34:57;;;;;;;4.97;3.20;;;;;;;15.07;45.47;99785.09;10221389;29;20050;-80
2022/09/30 16:40:10;;;;;;;4.80;2.90;;;;;;;15.20;45.27;99779.19;10230636;29;20039;-80
2022/09/30 16:45:15;;;;;;;8.80;3.60;;;;;;;14.92;45.88;99787.63;10244197;29;20051;-79
2022/09/30 16:50:24;;;;;;;4.07;3.58;;;;;;;14.72;46.38;99775.41;10254923;28;20051;-80
2022/09/30 16:55:27;;;;;;;6.40;4.15;;;;;;;14.45;47.29;99777.38;10257538;29;20043;-80
2022/09/30 17:00:32;;;;;;;5.32;3.58;;;;;;;14.29;47.50;99771.88;10250951;28;20508;-80
2022/09/30 17:05:35;;;;;;;5.40;4.38;;;;;;;14.07;47.96;99776.88;10246303;29;20082;-81
2022/09/30 17:10:38;;;;;;;6.78;4.25;;;;;;;13.92;48.22;99783.88;10251809;28;20144;-80
2022/09/30 17:21:19;;;;;;;7.13;4.68;;;;;;;13.54;49.17;99790.56;10799926;23;20448;-81
2022/09/30 17:26:22;;;;;;;6.35;5.38;;;;;;;13.43;49.35;99797.06;10308602;28;20078;-81
2022/09/30 17:31:25;;;;;;;6.40;5.40;;;;;;;13.39;49.44;99796.53;10260218;28;20066;-81
2022/09/30 17:36:29;;;;;;;10.40;7.03;;;;;;;13.30;49.91;99793.88;10242956;29;20047;-84
2022/09/30 17:46:59;;;;;;;9.55;6.60;;;;;;;13.02;50.79;99800.22;10248257;28;20110;-79
2022/09/30 17:52:04;;;;;;;15.13;9.90;;;;;;;13.00;51.07;99806.75;10250748;28;20043;-81
2022/09/30 17:57:07;;;;;;;10.68;6.68;;;;;;;12.86;51.61;99801.91;10238874;29;20067;-80
2022/09/30 18:02:11;;;;;;;10.40;6.50;;;;;;;12.75;51.89;99792.19;10235601;29;20154;-79
2022/09/30 18:07:15;;;;;;;10.23;5.35;;;;;;;12.65;52.17;99792.28;10247989;28;20468;-80
2022/09/30 18:12:18;;;;;;;15.82;10.10;;;;;;;12.59;52.34;99792.91;10238218;28;20151;-79
2022/09/30 18:17:22;;;;;;;14.18;7.20;;;;;;;12.52;52.36;99797.19;10236667;29;20079;-80
2022/09/30 18:22:26;;;;;;;7.88;4.10;;;;;;;12.50;52.40;99788.41;10240616;29;20074;-82
2022/09/30 18:27:32;;;;;;;7.18;3.88;;;;;;;12.44;52.46;99783.63;10249325;29;20081;-80
2022/09/30 18:32:35;;;;;;;8.23;4.20;;;;;;;12.34;52.63;99778.28;10242679;29;20416;-79
2022/09/30 18:37:41;;;;;;;10.65;4.85;;;;;;;12.23;52.78;99773.06;10214471;28;20050;-79
2022/09/30 18:42:44;;;;;;;11.23;6.32;;;;;;;12.10;52.90;99776.97;10213899;28;20047;-80
2022/09/30 18:47:47;;;;;;;16.65;10.27;;;;;;;12.06;53.00;99769.34;10205596;28;20512;-79
2022/09/30 18:52:52;;;;;;;11.75;8.43;;;;;;;12.07;52.90;99771.88;10213470;28;20102;-80
2022/09/30 18:57:56;;;;;;;65.20;39.00;;;;;;;12.06;52.75;99763.94;10203723;28;20047;-79
2022/09/30 19:02:59;;;;;;;11.57;7.85;;;;;;;11.97;52.87;99771.06;10208860;28;21156;-80
2022/09/30 19:08:03;;;;;;;45.78;30.95;;;;;;;11.88;53.01;99762.06;10186394;29;20082;-80
2022/09/30 19:13:06;;;;;;;21.45;13.70;;;;;;;11.85;53.25;99762.34;10198657;28;20063;-80
2022/09/30 19:18:10;;;;;;;4.20;3.78;;;;;;;11.86;53.13;99761.34;10222099;28;20693;-80
2022/09/30 19:23:15;;;;;;;5.45;3.15;;;;;;;11.87;53.23;99760.34;10198423;29;20065;-82
2022/09/30 19:28:21;;;;;;;15.35;8.73;;;;;;;11.86;53.24;99761.34;10208127;28;20081;-78
2022/09/30 19:33:26;;;;;;;19.08;9.95;;;;;;;11.86;53.27;99761.34;10229035;28;20051;-78
2022/09/30 19:38:31;;;;;;;5.43;3.22;;;;;;;11.98;53.04;99761.16;10233608;28;20047;-80
2022/09/30 19:43:40;;;;;;;7.00;2.70;;;;;;;12.04;52.78;99755.16;10209471;28;20048;-80
2022/09/30 19:48:42;;;;;;;4.20;2.25;;;;;;;12.11;52.68;99748.19;10218068;28;20173;-81
2022/09/30 19:53:48;;;;;;;5.72;2.90;;;;;;;12.19;52.50;99739.38;10216174;28;20058;-81
2022/09/30 19:59:06;;;;;;;2.38;2.17;;;;;;;12.18;52.65;99738.53;10221173;28;20058;-81
2022/09/30 20:04:09;;;;;;;5.68;2.50;;;;;;;12.27;52.30;99734.09;10208727;28;20059;-79
2022/09/30 20:09:13;;;;;;;4.53;2.13;;;;;;;12.23;52.67;99724.59;10213838;28;20996;-80
2022/09/30 20:19:36;;;;;;;2.67;1.33;;;;;;;12.01;51.67;99709.72;10213327;28;20085;-80
2022/09/30 20:24:40;;;;;;;1.75;1.23;;;;;;;12.05;51.18;99698.50;10215145;28;20047;-79
2022/09/30 20:29:43;;;;;;;2.08;1.40;;;;;;;11.99;51.44;99715.25;10208164;28;20052;-80
2022/09/30 20:34:46;;;;;;;2.65;1.60;;;;;;;12.06;51.45;99719.03;10210384;28;20051;-80
2022/09/30 20:39:50;;;;;;;5.40;1.42;;;;;;;12.00;51.64;99716.94;10219043;28;21150;-80
2022/09/30 20:44:54;;;;;;;2.35;1.52;;;;;;;11.85;52.47;99713.06;10198407;28;20043;-80
2022/09/30 20:49:58;;;;;;;1.40;1.27;;;;;;;11.69;53.02;99714.53;10209947;28;20070;-80
2022/09/30 20:55:04;;;;;;;4.85;1.70;;;;;;;11.47;53.61;99701.47;10217150;28;20545;-78
2022/09/30 21:00:09;;;;;;;5.57;2.03;;;;;;;11.42;53.80;99690.31;10213700;28;20099;-80
2022/09/30 21:05:11;;;;;;;4.57;1.65;;;;;;;11.29;54.60;99693.31;10210554;28;20102;-80
2022/09/30 21:10:16;;;;;;;4.57;2.35;;;;;;;11.37;54.48;99689.88;10211215;28;20078;-80
2022/09/30 21:15:19;;;;;;;2.30;2.10;;;;;;;11.34;54.67;99671.38;10208438;28;20404;-78
2022/09/30 21:20:22;;;;;;;2.60;2.40;;;;;;;11.18;55.37;99680.88;10208084;28;20567;-79
2022/09/30 21:25:26;;;;;;;2.33;2.05;;;;;;;11.15;55.43;99683.00;10216305;28;20142;-79
2022/09/30 21:30:29;;;;;;;2.50;2.30;;;;;;;11.22;55.32;99676.91;10211059;28;20058;-80
2022/09/30 21:35:32;;;;;;;2.88;2.13;;;;;;;11.14;55.78;99666.03;10212051;28;20050;-80
2022/09/30 21:40:37;;;;;;;4.80;2.15;;;;;;;11.12;56.01;99668.03;10215944;28;20520;-79
2022/09/30 21:45:40;;;;;;;4.05;1.90;;;;;;;11.05;56.09;99665.06;10211447;28;20054;-77
2022/09/30 21:50:43;;;;;;;3.70;2.08;;;;;;;11.06;56.05;99657.81;10236045;28;20485;-79
2022/09/30 21:55:48;;;;;;;4.20;2.20;;;;;;;10.98;56.51;99653.16;10246501;29;20122;-79
2022/09/30 22:00:52;;;;;;;1.90;1.60;;;;;;;10.86;56.64;99674.97;10247059;28;20046;-81
2022/09/30 22:05:56;;;;;;;2.63;2.25;;;;;;;10.93;56.50;99666.19;10250218;28;20110;-81
2022/09/30 22:11:00;;;;;;;2.67;1.95;;;;;;;11.03;56.42;99647.38;10239119;29;20050;-79
2022/09/30 22:16:06;;;;;;;6.65;2.25;;;;;;;11.08;56.38;99649.59;10246338;28;20043;-80
2022/09/30 22:21:13;;;;;;;3.38;2.30;;;;;;;11.14;56.35;99636.47;10249684;29;20058;-81
2022/09/30 22:26:20;;;;;;;2.92;2.10;;;;;;;11.08;56.41;99634.34;10235833;29;20076;-80
2022/09/30 22:31:26;;;;;;;4.93;2.25;;;;;;;11.13;56.27;99632.06;10218106;29;20051;-79
2022/09/30 22:41:53;;;;;;;4.35;2.40;;;;;;;11.24;55.93;99636.44;10254051;29;20114;-80
2022/09/30 22:46:58;;;;;;;4.47;2.33;;;;;;;11.12;56.35;99629.53;10233335;29;20055;-80
2022/09/30 22:52:02;;;;;;;2.10;1.73;;;;;;;11.04;56.65;99622.19;10242732;28;20434;-80
2022/09/30 22:57:08;;;;;;;3.00;2.30;;;;;;;10.95;57.03;99617.69;10223793;29;20564;-78
2022/09/30 23:02:11;;;;;;;4.68;2.22;;;;;;;10.91;57.45;99608.22;10231273;29;20091;-78
2022/09/30 23:07:13;;;;;;;;;;;;;;;11.03;57.07;99607.91;10240084;29;20084;-79
2022/09/30 23:12:18;;;;;;;2.60;2.17;;;;;;;10.89;57.66;99599.44;10225481;29;19946;-80
2022/09/30 23:17:20;;;;;;;5.32;2.45;;;;;;;10.89;57.53;99596.75;10233238;29;20051;-81
2022/09/30 23:22:23;;;;;;;8.15;2.83;;;;;;;11.07;57.38;99589.63;10247572;29;20126;-78
2022/09/30 23:27:27;;;;;;;;;;;;;;;10.72;58.17;99588.44;10260861;28;20047;-78
2022/09/30 23:32:30;;;;;;;1.90;1.80;;;;;;;10.95;57.73;99580.91;10251777;29;19923;-78
2022/09/30 23:37:32;;;;;;;;;;;;;;;10.66;58.29;99588.19;10241121;28;20059;-80
2022/09/30 23:42:37;;;;;;;5.63;3.05;;;;;;;10.86;58.35;99565.69;10258457;29;19926;-79
2022/09/30 23:47:39;;;;;;;2.55;2.20;;;;;;;10.93;57.92;99555.19;10235288;29;20574;-79
2022/09/30 23:52:42;;;;;;;;;;;;;;;10.94;58.03;99551.50;10245042;29;20048;-79
2022/09/30 23:57:47;;;;;;;3.15;2.63;;;;;;;11.10;57.49;99545.50;10237939;29;19954;-77
